sensor_id;sensor_type;location;lat;lon;timestamp;P1;durP1;ratioP1;P2;durP2;ratioP2
5965;SDS011;3009;43.224;27.976;2023-03-01T00:00:02;11.40;;;6.83;;
5965;SDS011;3009;43.224;27.976;2023-03-01T00:02:33;11.70;;;6.70;;
5965;SDS011;3009;43.224;27.976;2023-03-01T00:05:03;15.33;;;7.87;;
5965;SDS011;3009;43.224;27.976;2023-03-01T00:07:33;9.87;;;6.17;;
5965;SDS011;3009;43.224;27.976;2023-03-01T00:10:05;14.87;;;7.43;;
5965;SDS011;3009;43.224;27.976;2023-03-01T00:12:35;11.00;;;7.20;;
5965;SDS011;3009;43.224;27.976;2023-03-01T00:15:03;13.70;;;8.00;;
5965;SDS011;3009;43.224;27.976;2023-03-01T00:17:32;11.83;;;8.10;;
5965;SDS011;3009;43.224;27.976;2023-03-01T00:20:01;12.90;;;8.30;;
5965;SDS011;3009;43.224;27.976;2023-03-01T00:22:29;15.83;;;9.07;;
5965;SDS011;3009;43.224;27.976;2023-03-01T00:24:57;10.67;;;7.27;;
5965;SDS011;3009;43.224;27.976;2023-03-01T00:27:27;10.50;;;7.77;;
5965;SDS011;3009;43.224;27.976;2023-03-01T00:29:56;15.80;;;8.53;;
5965;SDS011;3009;43.224;27.976;2023-03-01T00:32:24;11.43;;;6.80;;
5965;SDS011;3009;43.224;27.976;2023-03-01T00:34:53;14.50;;;7.93;;
5965;SDS011;3009;43.224;27.976;2023-03-01T00:37:21;11.43;;;8.00;;
5965;SDS011;3009;43.224;27.976;2023-03-01T00:39:50;8.60;;;5.97;;
5965;SDS011;3009;43.224;27.976;2023-03-01T00:42:19;9.87;;;5.90;;
5965;SDS011;3009;43.224;27.976;2023-03-01T00:44:50;10.73;;;6.37;;
5965;SDS011;3009;43.224;27.976;2023-03-01T00:47:18;11.03;;;6.60;;
5965;SDS011;3009;43.224;27.976;2023-03-01T00:49:46;9.60;;;6.10;;
5965;SDS011;3009;43.224;27.976;2023-03-01T00:52:15;11.17;;;6.17;;
5965;SDS011;3009;43.224;27.976;2023-03-01T00:54:44;11.13;;;6.17;;
5965;SDS011;3009;43.224;27.976;2023-03-01T00:57:12;9.23;;;5.10;;
5965;SDS011;3009;43.224;27.976;2023-03-01T00:59:41;8.30;;;6.63;;
5965;SDS011;3009;43.224;27.976;2023-03-01T01:02:10;11.80;;;6.27;;
5965;SDS011;3009;43.224;27.976;2023-03-01T01:04:39;10.87;;;6.40;;
5965;SDS011;3009;43.224;27.976;2023-03-01T01:07:07;8.63;;;6.60;;
5965;SDS011;3009;43.224;27.976;2023-03-01T01:09:36;13.63;;;6.70;;
5965;SDS011;3009;43.224;27.976;2023-03-01T01:12:04;6.97;;;5.87;;
5965;SDS011;3009;43.224;27.976;2023-03-01T01:14:33;10.03;;;6.30;;
5965;SDS011;3009;43.224;27.976;2023-03-01T01:17:02;7.00;;;5.60;;
5965;SDS011;3009;43.224;27.976;2023-03-01T01:19:32;8.60;;;6.33;;
5965;SDS011;3009;43.224;27.976;2023-03-01T01:22:00;10.40;;;6.13;;
5965;SDS011;3009;43.224;27.976;2023-03-01T01:24:29;11.47;;;6.10;;
5965;SDS011;3009;43.224;27.976;2023-03-01T01:26:58;7.70;;;6.90;;
5965;SDS011;3009;43.224;27.976;2023-03-01T01:29:26;12.00;;;6.80;;
5965;SDS011;3009;43.224;27.976;2023-03-01T01:31:55;8.93;;;6.20;;
5965;SDS011;3009;43.224;27.976;2023-03-01T01:34:23;9.07;;;6.37;;
5965;SDS011;3009;43.224;27.976;2023-03-01T01:36:53;8.63;;;5.80;;
5965;SDS011;3009;43.224;27.976;2023-03-01T01:39:21;10.60;;;7.00;;
5965;SDS011;3009;43.224;27.976;2023-03-01T01:41:50;10.57;;;6.57;;
5965;SDS011;3009;43.224;27.976;2023-03-01T01:44:20;11.27;;;6.93;;
5965;SDS011;3009;43.224;27.976;2023-03-01T01:46:51;9.40;;;6.47;;
5965;SDS011;3009;43.224;27.976;2023-03-01T01:49:27;10.17;;;7.00;;
5965;SDS011;3009;43.224;27.976;2023-03-01T01:52:02;11.37;;;7.77;;
5965;SDS011;3009;43.224;27.976;2023-03-01T01:54:38;12.03;;;7.23;;
5965;SDS011;3009;43.224;27.976;2023-03-01T01:57:12;10.70;;;7.10;;
5965;SDS011;3009;43.224;27.976;2023-03-01T01:59:45;11.83;;;8.00;;
5965;SDS011;3009;43.224;27.976;2023-03-01T02:02:17;13.20;;;8.53;;
5965;SDS011;3009;43.224;27.976;2023-03-01T02:04:46;11.97;;;8.47;;
5965;SDS011;3009;43.224;27.976;2023-03-01T02:07:20;11.30;;;8.60;;
5965;SDS011;3009;43.224;27.976;2023-03-01T02:09:51;12.23;;;8.43;;
5965;SDS011;3009;43.224;27.976;2023-03-01T02:12:21;14.10;;;8.90;;
5965;SDS011;3009;43.224;27.976;2023-03-01T02:14:52;16.00;;;9.10;;
5965;SDS011;3009;43.224;27.976;2023-03-01T02:17:20;12.37;;;7.57;;
5965;SDS011;3009;43.224;27.976;2023-03-01T02:19:52;18.77;;;9.90;;
5965;SDS011;3009;43.224;27.976;2023-03-01T02:22:35;18.03;;;10.43;;
5965;SDS011;3009;43.224;27.976;2023-03-01T02:25:12;16.73;;;10.00;;
5965;SDS011;3009;43.224;27.976;2023-03-01T02:27:57;15.00;;;9.63;;
5965;SDS011;3009;43.224;27.976;2023-03-01T02:30:35;15.97;;;10.03;;
5965;SDS011;3009;43.224;27.976;2023-03-01T02:33:25;15.63;;;10.27;;
5965;SDS011;3009;43.224;27.976;2023-03-01T02:35:53;17.30;;;10.00;;
5965;SDS011;3009;43.224;27.976;2023-03-01T02:38:22;18.33;;;10.80;;
5965;SDS011;3009;43.224;27.976;2023-03-01T02:40:52;17.10;;;10.40;;
5965;SDS011;3009;43.224;27.976;2023-03-01T02:43:22;18.60;;;11.27;;
5965;SDS011;3009;43.224;27.976;2023-03-01T02:45:57;16.90;;;10.70;;
5965;SDS011;3009;43.224;27.976;2023-03-01T02:48:26;17.70;;;12.00;;
5965;SDS011;3009;43.224;27.976;2023-03-01T02:51:01;16.90;;;10.50;;
5965;SDS011;3009;43.224;27.976;2023-03-01T02:53:35;17.87;;;12.00;;
5965;SDS011;3009;43.224;27.976;2023-03-01T02:56:09;14.43;;;9.67;;
5965;SDS011;3009;43.224;27.976;2023-03-01T02:58:39;18.53;;;10.90;;
5965;SDS011;3009;43.224;27.976;2023-03-01T03:01:13;18.47;;;11.60;;
5965;SDS011;3009;43.224;27.976;2023-03-01T03:03:42;16.60;;;10.77;;
5965;SDS011;3009;43.224;27.976;2023-03-01T03:06:11;14.33;;;10.73;;
5965;SDS011;3009;43.224;27.976;2023-03-01T03:08:40;21.87;;;11.70;;
5965;SDS011;3009;43.224;27.976;2023-03-01T03:11:08;17.53;;;11.20;;
5965;SDS011;3009;43.224;27.976;2023-03-01T03:13:37;18.20;;;11.17;;
5965;SDS011;3009;43.224;27.976;2023-03-01T03:16:16;17.93;;;11.03;;
5965;SDS011;3009;43.224;27.976;2023-03-01T03:18:44;18.27;;;11.73;;
5965;SDS011;3009;43.224;27.976;2023-03-01T03:21:13;20.97;;;12.23;;
5965;SDS011;3009;43.224;27.976;2023-03-01T03:23:41;18.27;;;11.10;;
5965;SDS011;3009;43.224;27.976;2023-03-01T03:26:10;23.70;;;12.93;;
5965;SDS011;3009;43.224;27.976;2023-03-01T03:28:41;20.17;;;11.83;;
5965;SDS011;3009;43.224;27.976;2023-03-01T03:31:10;19.10;;;11.83;;
5965;SDS011;3009;43.224;27.976;2023-03-01T03:33:40;16.93;;;11.60;;
5965;SDS011;3009;43.224;27.976;2023-03-01T03:36:08;29.03;;;13.50;;
5965;SDS011;3009;43.224;27.976;2023-03-01T03:38:39;20.80;;;12.90;;
5965;SDS011;3009;43.224;27.976;2023-03-01T03:41:08;19.20;;;12.47;;
5965;SDS011;3009;43.224;27.976;2023-03-01T03:43:37;16.97;;;10.80;;
5965;SDS011;3009;43.224;27.976;2023-03-01T03:46:09;22.27;;;11.60;;
5965;SDS011;3009;43.224;27.976;2023-03-01T03:48:40;21.83;;;13.33;;
5965;SDS011;3009;43.224;27.976;2023-03-01T03:51:10;23.07;;;12.30;;
5965;SDS011;3009;43.224;27.976;2023-03-01T03:53:40;23.40;;;12.73;;
5965;SDS011;3009;43.224;27.976;2023-03-01T03:56:09;23.43;;;12.80;;
5965;SDS011;3009;43.224;27.976;2023-03-01T03:58:37;24.17;;;13.57;;
5965;SDS011;3009;43.224;27.976;2023-03-01T04:01:06;23.57;;;12.57;;
5965;SDS011;3009;43.224;27.976;2023-03-01T04:03:34;23.63;;;14.37;;
5965;SDS011;3009;43.224;27.976;2023-03-01T04:06:04;24.33;;;12.83;;
5965;SDS011;3009;43.224;27.976;2023-03-01T04:08:33;22.43;;;13.20;;
5965;SDS011;3009;43.224;27.976;2023-03-01T04:11:02;24.00;;;12.93;;
5965;SDS011;3009;43.224;27.976;2023-03-01T04:13:45;24.17;;;14.40;;
5965;SDS011;3009;43.224;27.976;2023-03-01T04:16:14;22.90;;;12.23;;
5965;SDS011;3009;43.224;27.976;2023-03-01T04:18:43;25.73;;;13.07;;
5965;SDS011;3009;43.224;27.976;2023-03-01T04:21:13;25.53;;;12.27;;
5965;SDS011;3009;43.224;27.976;2023-03-01T04:23:41;21.93;;;13.70;;
5965;SDS011;3009;43.224;27.976;2023-03-01T04:26:10;23.20;;;13.80;;
5965;SDS011;3009;43.224;27.976;2023-03-01T04:28:39;20.23;;;12.20;;
5965;SDS011;3009;43.224;27.976;2023-03-01T04:31:12;23.10;;;11.77;;
5965;SDS011;3009;43.224;27.976;2023-03-01T04:33:43;18.90;;;12.57;;
5965;SDS011;3009;43.224;27.976;2023-03-01T04:36:15;18.87;;;12.33;;
5965;SDS011;3009;43.224;27.976;2023-03-01T04:38:44;24.30;;;14.20;;
5965;SDS011;3009;43.224;27.976;2023-03-01T04:41:14;21.93;;;12.10;;
5965;SDS011;3009;43.224;27.976;2023-03-01T04:43:43;21.10;;;12.90;;
5965;SDS011;3009;43.224;27.976;2023-03-01T04:46:12;21.00;;;12.70;;
5965;SDS011;3009;43.224;27.976;2023-03-01T04:48:42;18.53;;;12.23;;
5965;SDS011;3009;43.224;27.976;2023-03-01T04:51:13;23.83;;;11.83;;
5965;SDS011;3009;43.224;27.976;2023-03-01T04:53:45;18.60;;;11.83;;
5965;SDS011;3009;43.224;27.976;2023-03-01T04:56:13;18.57;;;11.57;;
5965;SDS011;3009;43.224;27.976;2023-03-01T04:58:42;20.60;;;12.50;;
5965;SDS011;3009;43.224;27.976;2023-03-01T05:01:11;22.97;;;12.20;;
5965;SDS011;3009;43.224;27.976;2023-03-01T05:03:42;19.87;;;13.63;;
5965;SDS011;3009;43.224;27.976;2023-03-01T05:06:12;18.30;;;11.33;;
5965;SDS011;3009;43.224;27.976;2023-03-01T05:08:42;17.30;;;10.60;;
5965;SDS011;3009;43.224;27.976;2023-03-01T05:11:11;19.77;;;11.60;;
5965;SDS011;3009;43.224;27.976;2023-03-01T05:13:40;19.53;;;12.07;;
5965;SDS011;3009;43.224;27.976;2023-03-01T05:16:09;19.03;;;12.00;;
5965;SDS011;3009;43.224;27.976;2023-03-01T05:18:38;17.40;;;10.43;;
5965;SDS011;3009;43.224;27.976;2023-03-01T05:21:09;20.97;;;12.40;;
5965;SDS011;3009;43.224;27.976;2023-03-01T05:23:44;17.57;;;11.67;;
5965;SDS011;3009;43.224;27.976;2023-03-01T05:26:13;19.50;;;11.83;;
5965;SDS011;3009;43.224;27.976;2023-03-01T05:28:53;21.33;;;12.43;;
5965;SDS011;3009;43.224;27.976;2023-03-01T05:31:26;20.10;;;12.17;;
5965;SDS011;3009;43.224;27.976;2023-03-01T05:33:54;18.50;;;12.00;;
5965;SDS011;3009;43.224;27.976;2023-03-01T05:36:23;16.97;;;10.63;;
5965;SDS011;3009;43.224;27.976;2023-03-01T05:38:52;18.83;;;11.87;;
5965;SDS011;3009;43.224;27.976;2023-03-01T05:41:22;22.70;;;12.03;;
5965;SDS011;3009;43.224;27.976;2023-03-01T05:43:50;17.83;;;11.40;;
5965;SDS011;3009;43.224;27.976;2023-03-01T05:46:19;21.80;;;11.63;;
5965;SDS011;3009;43.224;27.976;2023-03-01T05:48:49;17.27;;;10.73;;
5965;SDS011;3009;43.224;27.976;2023-03-01T05:51:17;19.37;;;11.20;;
5965;SDS011;3009;43.224;27.976;2023-03-01T05:53:45;20.03;;;12.20;;
5965;SDS011;3009;43.224;27.976;2023-03-01T05:56:15;18.50;;;10.73;;
5965;SDS011;3009;43.224;27.976;2023-03-01T05:58:43;18.70;;;11.27;;
5965;SDS011;3009;43.224;27.976;2023-03-01T06:01:13;16.43;;;10.90;;
5965;SDS011;3009;43.224;27.976;2023-03-01T06:03:41;18.03;;;10.50;;
5965;SDS011;3009;43.224;27.976;2023-03-01T06:06:10;23.60;;;12.80;;
5965;SDS011;3009;43.224;27.976;2023-03-01T06:08:38;22.00;;;12.03;;
5965;SDS011;3009;43.224;27.976;2023-03-01T06:11:07;19.93;;;11.03;;
5965;SDS011;3009;43.224;27.976;2023-03-01T06:13:37;19.43;;;12.53;;
5965;SDS011;3009;43.224;27.976;2023-03-01T06:16:06;16.97;;;10.50;;
5965;SDS011;3009;43.224;27.976;2023-03-01T06:18:35;19.20;;;11.50;;
5965;SDS011;3009;43.224;27.976;2023-03-01T06:21:04;20.20;;;11.00;;
5965;SDS011;3009;43.224;27.976;2023-03-01T06:23:33;18.67;;;10.97;;
5965;SDS011;3009;43.224;27.976;2023-03-01T06:26:04;19.40;;;12.73;;
5965;SDS011;3009;43.224;27.976;2023-03-01T06:28:33;21.50;;;11.47;;
5965;SDS011;3009;43.224;27.976;2023-03-01T06:31:03;20.67;;;11.70;;
5965;SDS011;3009;43.224;27.976;2023-03-01T06:33:35;17.53;;;11.37;;
5965;SDS011;3009;43.224;27.976;2023-03-01T06:36:03;20.20;;;11.93;;
5965;SDS011;3009;43.224;27.976;2023-03-01T06:38:32;16.33;;;10.50;;
5965;SDS011;3009;43.224;27.976;2023-03-01T06:41:01;20.10;;;11.60;;
5965;SDS011;3009;43.224;27.976;2023-03-01T06:43:29;16.30;;;11.07;;
5965;SDS011;3009;43.224;27.976;2023-03-01T06:45:58;18.57;;;12.30;;
5965;SDS011;3009;43.224;27.976;2023-03-01T06:48:28;26.03;;;12.40;;
5965;SDS011;3009;43.224;27.976;2023-03-01T06:50:57;16.90;;;10.60;;
5965;SDS011;3009;43.224;27.976;2023-03-01T06:53:27;23.60;;;12.60;;
5965;SDS011;3009;43.224;27.976;2023-03-01T06:55:56;18.40;;;11.53;;
5965;SDS011;3009;43.224;27.976;2023-03-01T06:58:26;23.23;;;11.73;;
5965;SDS011;3009;43.224;27.976;2023-03-01T07:00:55;21.80;;;11.40;;
5965;SDS011;3009;43.224;27.976;2023-03-01T07:03:23;16.03;;;10.33;;
5965;SDS011;3009;43.224;27.976;2023-03-01T07:05:53;19.47;;;12.00;;
5965;SDS011;3009;43.224;27.976;2023-03-01T07:08:21;20.17;;;13.67;;
5965;SDS011;3009;43.224;27.976;2023-03-01T07:10:54;20.70;;;12.07;;
5965;SDS011;3009;43.224;27.976;2023-03-01T07:13:23;19.47;;;11.20;;
5965;SDS011;3009;43.224;27.976;2023-03-01T07:15:51;17.37;;;11.97;;
5965;SDS011;3009;43.224;27.976;2023-03-01T07:18:20;23.97;;;15.17;;
5965;SDS011;3009;43.224;27.976;2023-03-01T07:20:48;25.30;;;13.30;;
5965;SDS011;3009;43.224;27.976;2023-03-01T07:23:18;23.80;;;12.87;;
5965;SDS011;3009;43.224;27.976;2023-03-01T07:25:51;19.90;;;12.30;;
5965;SDS011;3009;43.224;27.976;2023-03-01T07:28:22;19.80;;;12.20;;
5965;SDS011;3009;43.224;27.976;2023-03-01T07:30:51;20.87;;;13.07;;
5965;SDS011;3009;43.224;27.976;2023-03-01T07:33:19;27.57;;;14.07;;
5965;SDS011;3009;43.224;27.976;2023-03-01T07:35:48;25.53;;;13.77;;
5965;SDS011;3009;43.224;27.976;2023-03-01T07:38:24;22.37;;;12.63;;
5965;SDS011;3009;43.224;27.976;2023-03-01T07:40:53;17.33;;;11.70;;
5965;SDS011;3009;43.224;27.976;2023-03-01T07:43:21;23.67;;;11.80;;
5965;SDS011;3009;43.224;27.976;2023-03-01T07:45:50;25.83;;;15.80;;
5965;SDS011;3009;43.224;27.976;2023-03-01T07:48:18;24.87;;;13.27;;
5965;SDS011;3009;43.224;27.976;2023-03-01T07:50:47;21.40;;;12.77;;
5965;SDS011;3009;43.224;27.976;2023-03-01T07:53:15;21.17;;;13.40;;
5965;SDS011;3009;43.224;27.976;2023-03-01T07:55:45;19.00;;;12.40;;
5965;SDS011;3009;43.224;27.976;2023-03-01T07:58:15;21.13;;;11.70;;
5965;SDS011;3009;43.224;27.976;2023-03-01T08:00:44;19.63;;;12.10;;
5965;SDS011;3009;43.224;27.976;2023-03-01T08:03:12;16.13;;;10.30;;
5965;SDS011;3009;43.224;27.976;2023-03-01T08:05:40;19.17;;;12.10;;
5965;SDS011;3009;43.224;27.976;2023-03-01T08:08:08;16.27;;;9.40;;
5965;SDS011;3009;43.224;27.976;2023-03-01T08:10:37;21.57;;;13.03;;
5965;SDS011;3009;43.224;27.976;2023-03-01T08:13:07;21.40;;;11.93;;
5965;SDS011;3009;43.224;27.976;2023-03-01T08:15:35;30.20;;;10.63;;
5965;SDS011;3009;43.224;27.976;2023-03-01T08:18:03;20.13;;;12.03;;
5965;SDS011;3009;43.224;27.976;2023-03-01T08:20:33;18.70;;;11.50;;
5965;SDS011;3009;43.224;27.976;2023-03-01T08:23:01;17.83;;;10.90;;
5965;SDS011;3009;43.224;27.976;2023-03-01T08:25:29;19.67;;;11.20;;
5965;SDS011;3009;43.224;27.976;2023-03-01T08:27:58;14.30;;;10.80;;
5965;SDS011;3009;43.224;27.976;2023-03-01T08:30:27;22.03;;;11.47;;
5965;SDS011;3009;43.224;27.976;2023-03-01T08:32:56;18.03;;;11.83;;
5965;SDS011;3009;43.224;27.976;2023-03-01T08:35:25;15.47;;;11.63;;
5965;SDS011;3009;43.224;27.976;2023-03-01T08:37:53;17.20;;;11.50;;
5965;SDS011;3009;43.224;27.976;2023-03-01T08:40:21;19.57;;;11.80;;
5965;SDS011;3009;43.224;27.976;2023-03-01T08:42:50;19.17;;;11.43;;
5965;SDS011;3009;43.224;27.976;2023-03-01T08:45:18;18.00;;;11.40;;
5965;SDS011;3009;43.224;27.976;2023-03-01T08:47:50;21.80;;;11.53;;
5965;SDS011;3009;43.224;27.976;2023-03-01T08:50:20;22.10;;;12.23;;
5965;SDS011;3009;43.224;27.976;2023-03-01T08:52:49;15.43;;;10.80;;
5965;SDS011;3009;43.224;27.976;2023-03-01T08:55:17;17.17;;;12.00;;
5965;SDS011;3009;43.224;27.976;2023-03-01T08:57:46;19.50;;;12.83;;
5965;SDS011;3009;43.224;27.976;2023-03-01T09:00:14;19.97;;;12.70;;
5965;SDS011;3009;43.224;27.976;2023-03-01T09:02:43;22.63;;;12.60;;
5965;SDS011;3009;43.224;27.976;2023-03-01T09:05:13;21.13;;;12.67;;
5965;SDS011;3009;43.224;27.976;2023-03-01T09:07:45;17.70;;;12.77;;
5965;SDS011;3009;43.224;27.976;2023-03-01T09:10:13;18.37;;;12.80;;
5965;SDS011;3009;43.224;27.976;2023-03-01T09:12:42;19.23;;;14.00;;
5965;SDS011;3009;43.224;27.976;2023-03-01T09:15:10;15.97;;;11.00;;
5965;SDS011;3009;43.224;27.976;2023-03-01T09:17:39;19.90;;;14.00;;
5965;SDS011;3009;43.224;27.976;2023-03-01T09:20:07;20.93;;;14.07;;
5965;SDS011;3009;43.224;27.976;2023-03-01T09:22:38;25.83;;;11.57;;
5965;SDS011;3009;43.224;27.976;2023-03-01T09:25:06;20.00;;;13.27;;
5965;SDS011;3009;43.224;27.976;2023-03-01T09:27:36;22.50;;;13.90;;
5965;SDS011;3009;43.224;27.976;2023-03-01T09:30:04;25.67;;;14.63;;
5965;SDS011;3009;43.224;27.976;2023-03-01T09:32:34;21.07;;;14.90;;
5965;SDS011;3009;43.224;27.976;2023-03-01T09:35:02;22.80;;;13.13;;
5965;SDS011;3009;43.224;27.976;2023-03-01T09:37:32;22.63;;;15.17;;
5965;SDS011;3009;43.224;27.976;2023-03-01T09:40:03;22.07;;;12.20;;
5965;SDS011;3009;43.224;27.976;2023-03-01T09:42:33;17.10;;;12.10;;
5965;SDS011;3009;43.224;27.976;2023-03-01T09:45:04;24.90;;;12.60;;
5965;SDS011;3009;43.224;27.976;2023-03-01T09:47:35;25.83;;;11.80;;
5965;SDS011;3009;43.224;27.976;2023-03-01T09:50:04;20.17;;;12.93;;
5965;SDS011;3009;43.224;27.976;2023-03-01T09:52:39;16.33;;;11.37;;
5965;SDS011;3009;43.224;27.976;2023-03-01T09:55:13;19.00;;;12.57;;
5965;SDS011;3009;43.224;27.976;2023-03-01T09:57:46;18.90;;;11.30;;
5965;SDS011;3009;43.224;27.976;2023-03-01T10:00:27;25.30;;;13.40;;
5965;SDS011;3009;43.224;27.976;2023-03-01T10:03:02;14.13;;;10.37;;
5965;SDS011;3009;43.224;27.976;2023-03-01T10:05:44;19.03;;;9.57;;
5965;SDS011;3009;43.224;27.976;2023-03-01T10:11:16;11.17;;;7.20;;
5965;SDS011;3009;43.224;27.976;2023-03-01T10:13:52;15.60;;;7.20;;
5965;SDS011;3009;43.224;27.976;2023-03-01T10:16:30;10.20;;;6.60;;
5965;SDS011;3009;43.224;27.976;2023-03-01T10:19:09;7.60;;;6.43;;
5965;SDS011;3009;43.224;27.976;2023-03-01T10:21:43;17.97;;;7.07;;
5965;SDS011;3009;43.224;27.976;2023-03-01T10:24:14;14.73;;;7.47;;
5965;SDS011;3009;43.224;27.976;2023-03-01T10:26:50;9.97;;;6.70;;
5965;SDS011;3009;43.224;27.976;2023-03-01T10:29:23;12.70;;;8.77;;
5965;SDS011;3009;43.224;27.976;2023-03-01T10:31:57;13.70;;;7.17;;
5965;SDS011;3009;43.224;27.976;2023-03-01T10:34:27;11.37;;;6.83;;
5965;SDS011;3009;43.224;27.976;2023-03-01T10:36:57;8.30;;;6.30;;
5965;SDS011;3009;43.224;27.976;2023-03-01T10:39:36;10.30;;;7.27;;
5965;SDS011;3009;43.224;27.976;2023-03-01T10:42:17;9.57;;;7.20;;
5965;SDS011;3009;43.224;27.976;2023-03-01T10:44:52;12.30;;;7.83;;
5965;SDS011;3009;43.224;27.976;2023-03-01T10:47:22;16.47;;;9.70;;
5965;SDS011;3009;43.224;27.976;2023-03-01T10:49:53;14.30;;;9.70;;
5965;SDS011;3009;43.224;27.976;2023-03-01T10:52:24;21.10;;;8.23;;
5965;SDS011;3009;43.224;27.976;2023-03-01T10:54:56;14.13;;;9.70;;
5965;SDS011;3009;43.224;27.976;2023-03-01T10:57:31;13.23;;;9.50;;
5965;SDS011;3009;43.224;27.976;2023-03-01T11:00:15;18.40;;;11.80;;
5965;SDS011;3009;43.224;27.976;2023-03-01T11:02:51;13.50;;;9.40;;
5965;SDS011;3009;43.224;27.976;2023-03-01T11:05:31;14.73;;;9.60;;
5965;SDS011;3009;43.224;27.976;2023-03-01T11:08:00;18.50;;;12.33;;
5965;SDS011;3009;43.224;27.976;2023-03-01T11:10:31;11.20;;;8.93;;
5965;SDS011;3009;43.224;27.976;2023-03-01T11:13:07;19.30;;;10.20;;
5965;SDS011;3009;43.224;27.976;2023-03-01T11:15:41;12.83;;;9.07;;
5965;SDS011;3009;43.224;27.976;2023-03-01T11:18:20;15.90;;;10.33;;
5965;SDS011;3009;43.224;27.976;2023-03-01T11:21:10;10.80;;;8.53;;
5965;SDS011;3009;43.224;27.976;2023-03-01T11:23:38;11.33;;;8.60;;
5965;SDS011;3009;43.224;27.976;2023-03-01T11:26:09;13.07;;;8.70;;
5965;SDS011;3009;43.224;27.976;2023-03-01T11:28:41;11.10;;;8.37;;
5965;SDS011;3009;43.224;27.976;2023-03-01T11:31:13;11.93;;;7.87;;
5965;SDS011;3009;43.224;27.976;2023-03-01T11:33:44;9.90;;;8.00;;
5965;SDS011;3009;43.224;27.976;2023-03-01T11:36:19;11.30;;;7.80;;
5965;SDS011;3009;43.224;27.976;2023-03-01T11:38:56;11.43;;;7.00;;
5965;SDS011;3009;43.224;27.976;2023-03-01T11:41:30;10.97;;;8.00;;
5965;SDS011;3009;43.224;27.976;2023-03-01T11:44:03;12.47;;;8.40;;
5965;SDS011;3009;43.224;27.976;2023-03-01T11:46:44;10.77;;;8.03;;
5965;SDS011;3009;43.224;27.976;2023-03-01T11:49:36;6.77;;;6.10;;
5965;SDS011;3009;43.224;27.976;2023-03-01T11:52:20;9.00;;;7.30;;
5965;SDS011;3009;43.224;27.976;2023-03-01T11:55:00;11.17;;;7.93;;
5965;SDS011;3009;43.224;27.976;2023-03-01T11:57:43;8.37;;;7.47;;
5965;SDS011;3009;43.224;27.976;2023-03-01T12:00:26;9.37;;;7.30;;
5965;SDS011;3009;43.224;27.976;2023-03-01T12:06:11;8.77;;;6.67;;
5965;SDS011;3009;43.224;27.976;2023-03-01T12:09:04;8.17;;;7.40;;
5965;SDS011;3009;43.224;27.976;2023-03-01T12:12:08;10.03;;;7.10;;
5965;SDS011;3009;43.224;27.976;2023-03-01T12:14:55;8.97;;;7.27;;
5965;SDS011;3009;43.224;27.976;2023-03-01T12:20:51;9.80;;;8.03;;
5965;SDS011;3009;43.224;27.976;2023-03-01T12:26:29;8.93;;;7.67;;
5965;SDS011;3009;43.224;27.976;2023-03-01T12:32:02;8.47;;;6.27;;
5965;SDS011;3009;43.224;27.976;2023-03-01T12:34:48;7.80;;;7.00;;
5965;SDS011;3009;43.224;27.976;2023-03-01T12:37:42;19.63;;;9.83;;
5965;SDS011;3009;43.224;27.976;2023-03-01T12:40:29;6.67;;;5.97;;
5965;SDS011;3009;43.224;27.976;2023-03-01T12:43:08;9.40;;;6.20;;
5965;SDS011;3009;43.224;27.976;2023-03-01T12:45:57;8.10;;;6.40;;
5965;SDS011;3009;43.224;27.976;2023-03-01T12:48:40;11.70;;;6.70;;
5965;SDS011;3009;43.224;27.976;2023-03-01T12:51:17;14.40;;;5.47;;
5965;SDS011;3009;43.224;27.976;2023-03-01T12:53:50;8.87;;;6.03;;
5965;SDS011;3009;43.224;27.976;2023-03-01T12:56:23;8.00;;;6.13;;
5965;SDS011;3009;43.224;27.976;2023-03-01T12:58:57;7.67;;;5.87;;
5965;SDS011;3009;43.224;27.976;2023-03-01T13:01:35;9.27;;;6.77;;
5965;SDS011;3009;43.224;27.976;2023-03-01T13:04:20;12.23;;;6.17;;
5965;SDS011;3009;43.224;27.976;2023-03-01T13:07:02;9.60;;;6.50;;
5965;SDS011;3009;43.224;27.976;2023-03-01T13:09:39;8.90;;;6.90;;
5965;SDS011;3009;43.224;27.976;2023-03-01T13:15:24;8.73;;;5.70;;
5965;SDS011;3009;43.224;27.976;2023-03-01T13:17:54;8.87;;;6.17;;
5965;SDS011;3009;43.224;27.976;2023-03-01T13:20:25;19.37;;;8.57;;
5965;SDS011;3009;43.224;27.976;2023-03-01T13:23:07;19.33;;;10.17;;
5965;SDS011;3009;43.224;27.976;2023-03-01T13:28:47;7.50;;;6.07;;
5965;SDS011;3009;43.224;27.976;2023-03-01T13:34:43;9.83;;;7.00;;
5965;SDS011;3009;43.224;27.976;2023-03-01T13:37:20;13.07;;;8.10;;
5965;SDS011;3009;43.224;27.976;2023-03-01T13:39:58;6.73;;;5.77;;
5965;SDS011;3009;43.224;27.976;2023-03-01T13:42:38;19.47;;;13.43;;
5965;SDS011;3009;43.224;27.976;2023-03-01T13:45:26;9.17;;;6.80;;
5965;SDS011;3009;43.224;27.976;2023-03-01T13:48:09;9.23;;;7.17;;
5965;SDS011;3009;43.224;27.976;2023-03-01T13:50:43;15.20;;;6.83;;
5965;SDS011;3009;43.224;27.976;2023-03-01T13:53:16;9.50;;;6.70;;
5965;SDS011;3009;43.224;27.976;2023-03-01T13:55:48;10.47;;;7.23;;
5965;SDS011;3009;43.224;27.976;2023-03-01T13:58:23;9.90;;;6.70;;
5965;SDS011;3009;43.224;27.976;2023-03-01T14:00:57;9.67;;;6.43;;
5965;SDS011;3009;43.224;27.976;2023-03-01T14:03:27;10.43;;;8.33;;
5965;SDS011;3009;43.224;27.976;2023-03-01T14:06:00;14.27;;;7.93;;
5965;SDS011;3009;43.224;27.976;2023-03-01T14:08:45;11.27;;;7.30;;
5965;SDS011;3009;43.224;27.976;2023-03-01T14:14:25;23.17;;;13.47;;
5965;SDS011;3009;43.224;27.976;2023-03-01T14:17:06;19.43;;;11.73;;
5965;SDS011;3009;43.224;27.976;2023-03-01T14:20:03;32.30;;;16.30;;
5965;SDS011;3009;43.224;27.976;2023-03-01T14:22:40;20.90;;;13.30;;
5965;SDS011;3009;43.224;27.976;2023-03-01T14:25:17;15.13;;;11.03;;
5965;SDS011;3009;43.224;27.976;2023-03-01T14:27:58;16.20;;;10.10;;
5965;SDS011;3009;43.224;27.976;2023-03-01T14:30:32;18.97;;;12.37;;
5965;SDS011;3009;43.224;27.976;2023-03-01T14:33:04;16.70;;;11.60;;
5965;SDS011;3009;43.224;27.976;2023-03-01T14:35:35;12.87;;;9.20;;
5965;SDS011;3009;43.224;27.976;2023-03-01T14:38:04;24.63;;;12.60;;
5965;SDS011;3009;43.224;27.976;2023-03-01T14:40:32;12.37;;;8.90;;
5965;SDS011;3009;43.224;27.976;2023-03-01T14:43:09;33.03;;;13.93;;
5965;SDS011;3009;43.224;27.976;2023-03-01T14:45:40;14.27;;;9.23;;
5965;SDS011;3009;43.224;27.976;2023-03-01T14:48:16;12.50;;;8.50;;
5965;SDS011;3009;43.224;27.976;2023-03-01T14:50:46;16.40;;;11.90;;
5965;SDS011;3009;43.224;27.976;2023-03-01T14:53:16;19.63;;;15.07;;
5965;SDS011;3009;43.224;27.976;2023-03-01T14:55:47;20.20;;;13.20;;
5965;SDS011;3009;43.224;27.976;2023-03-01T14:58:22;10.13;;;8.20;;
5965;SDS011;3009;43.224;27.976;2023-03-01T15:00:54;11.30;;;8.47;;
5965;SDS011;3009;43.224;27.976;2023-03-01T15:03:26;10.60;;;9.30;;
5965;SDS011;3009;43.224;27.976;2023-03-01T15:05:58;10.23;;;7.70;;
5965;SDS011;3009;43.224;27.976;2023-03-01T15:08:28;11.50;;;9.10;;
5965;SDS011;3009;43.224;27.976;2023-03-01T15:11:00;13.57;;;7.40;;
5965;SDS011;3009;43.224;27.976;2023-03-01T15:13:35;11.73;;;8.13;;
5965;SDS011;3009;43.224;27.976;2023-03-01T15:16:07;11.27;;;7.73;;
5965;SDS011;3009;43.224;27.976;2023-03-01T15:18:42;13.17;;;9.90;;
5965;SDS011;3009;43.224;27.976;2023-03-01T15:21:17;11.80;;;7.90;;
5965;SDS011;3009;43.224;27.976;2023-03-01T15:23:50;17.53;;;9.20;;
5965;SDS011;3009;43.224;27.976;2023-03-01T15:26:24;9.23;;;7.50;;
5965;SDS011;3009;43.224;27.976;2023-03-01T15:28:58;11.97;;;8.83;;
5965;SDS011;3009;43.224;27.976;2023-03-01T15:31:28;9.70;;;8.60;;
5965;SDS011;3009;43.224;27.976;2023-03-01T15:34:19;10.23;;;8.67;;
5965;SDS011;3009;43.224;27.976;2023-03-01T15:37:01;13.73;;;8.80;;
5965;SDS011;3009;43.224;27.976;2023-03-01T15:39:33;12.90;;;8.30;;